createdAt,value
2022-08-07T00:02:36.528Z,62.45
2022-08-07T00:06:33.346Z,62.06
2022-08-07T00:10:30.580Z,62.08
2022-08-07T00:14:25.402Z,62.30
2022-08-07T00:18:24.276Z,62.33
2022-08-07T00:22:24.815Z,62.84
2022-08-07T00:26:49.419Z,62.24
2022-08-07T00:30:40.733Z,62.27
2022-08-07T00:34:33.279Z,62.11
2022-08-07T00:38:31.600Z,62.55
2022-08-07T00:42:29.159Z,62.65
2022-08-07T00:46:21.903Z,62.60
2022-08-07T00:50:20.670Z,63.33
2022-08-07T00:54:29.085Z,63.21
2022-08-07T00:58:22.567Z,63.06
2022-08-07T01:02:28.480Z,63.42
2022-08-07T01:06:22.492Z,63.42
2022-08-07T01:10:15.502Z,63.05
2022-08-07T01:14:11.097Z,62.81
2022-08-07T01:18:03.885Z,63.10
2022-08-07T01:21:57.900Z,63.34
2022-08-07T01:25:55.642Z,63.25
2022-08-07T01:29:50.752Z,64.28
2022-08-07T01:33:55.575Z,63.77
2022-08-07T01:37:51.035Z,63.57
2022-08-07T01:42:07.147Z,64.12
2022-08-07T01:45:58.700Z,64.14
2022-08-07T01:49:51.451Z,64.13
2022-08-07T01:54:11.631Z,63.97
2022-08-07T01:58:28.912Z,63.78
2022-08-07T02:03:12.265Z,63.97
2022-08-07T02:06:48.738Z,64.26
2022-08-07T02:10:43.434Z,64.44
2022-08-07T02:14:41.407Z,64.67
2022-08-07T02:18:37.964Z,64.44
2022-08-07T02:22:43.627Z,65.09
2022-08-07T02:26:39.455Z,64.77
2022-08-07T02:30:34.519Z,65.26
2022-08-07T02:34:29.684Z,65.31
2022-08-07T02:38:28.079Z,64.96
2022-08-07T02:42:24.764Z,64.63
2022-08-07T02:46:20.587Z,64.53
2022-08-07T02:50:14.712Z,65.16
2022-08-07T02:54:10.303Z,65.51
2022-08-07T02:58:09.815Z,65.84
2022-08-07T03:02:03.441Z,65.94
2022-08-07T03:05:57.982Z,65.41
2022-08-07T03:09:52.651Z,66.07
2022-08-07T03:13:49.654Z,65.19
2022-08-07T03:17:53.325Z,65.23
2022-08-07T03:21:50.522Z,65.42
2022-08-07T03:25:45.586Z,65.42
2022-08-07T03:29:52.419Z,65.96
2022-08-07T03:34:02.063Z,65.49
2022-08-07T03:38:02.184Z,65.06
2022-08-07T03:41:58.377Z,65.72
2022-08-07T03:45:53.994Z,65.58
2022-08-07T03:49:47.650Z,65.25
2022-08-07T03:54:05.971Z,66.18
2022-08-07T03:58:17.978Z,66.29
2022-08-07T04:02:12.104Z,65.87
2022-08-07T04:06:10.831Z,65.75
2022-08-07T04:10:23.659Z,65.71
2022-08-07T04:14:37.599Z,65.32
2022-08-07T04:18:58.579Z,65.29
2022-08-07T04:22:53.464Z,64.98
2022-08-07T04:26:54.350Z,64.46
2022-08-07T04:30:57.098Z,65.12
2022-08-07T04:34:50.657Z,64.76
2022-08-07T04:38:43.315Z,64.12
2022-08-07T04:42:35.882Z,64.66
2022-08-07T04:46:59.530Z,64.11
2022-08-07T04:50:56.507Z,63.46
2022-08-07T04:55:01.518Z,63.41
2022-08-07T05:00:14.337Z,63.02
2022-08-07T05:04:07.477Z,62.61
2022-08-07T05:08:59.286Z,61.55
2022-08-07T05:13:10.033Z,61.19
2022-08-07T05:17:17.507Z,61.64
2022-08-07T05:22:00.303Z,61.55
2022-08-07T05:26:15.232Z,61.76
2022-08-07T05:29:58.209Z,62.55
2022-08-07T05:34:04.837Z,61.90
2022-08-07T05:38:08.732Z,62.29
2022-08-07T05:42:07.381Z,63.78
2022-08-07T05:46:03.253Z,64.52
2022-08-07T05:49:58.395Z,64.71
2022-08-07T05:54:12.182Z,63.96
2022-08-07T05:58:05.976Z,64.07
2022-08-07T06:01:59.358Z,64.00
2022-08-07T06:05:56.669Z,63.73
2022-08-07T06:10:05.491Z,64.03
2022-08-07T06:14:13.592Z,63.29
2022-08-07T06:18:15.893Z,62.12
2022-08-07T06:22:16.402Z,63.75
2022-08-07T06:26:16.315Z,61.84
2022-08-07T06:30:24.366Z,61.52
2022-08-07T06:34:29.626Z,59.64
2022-08-07T06:38:23.009Z,60.40
2022-08-07T06:42:34.803Z,61.29
2022-08-07T06:46:35.277Z,61.69
2022-08-07T06:50:30.387Z,61.30
2022-08-07T06:55:32.413Z,59.60
2022-08-07T06:58:40.370Z,59.18
2022-08-07T07:02:58.075Z,59.69
2022-08-07T07:07:00.661Z,60.13
2022-08-07T07:10:57.292Z,59.27
2022-08-07T07:15:24.173Z,58.02
2022-08-07T07:19:55.716Z,57.25
2022-08-07T07:24:06.389Z,57.15
2022-08-07T07:28:42.425Z,56.61
2022-08-07T07:32:30.999Z,55.26
2022-08-07T07:36:32.271Z,54.25
2022-08-07T07:40:26.284Z,54.20
2022-08-07T07:44:26.052Z,47.81
2022-08-07T07:48:35.861Z,46.86
2022-08-07T07:52:30.743Z,46.94
2022-08-07T07:56:30.193Z,45.47
2022-08-07T08:00:29.643Z,44.90
2022-08-07T08:04:26.303Z,44.04
2022-08-07T08:08:34.463Z,43.94
2022-08-07T08:12:52.476Z,44.67
2022-08-07T08:16:50.431Z,43.91
2022-08-07T08:20:45.348Z,44.27
2022-08-07T08:25:18.176Z,43.66
2022-08-07T08:29:17.050Z,44.37
2022-08-07T08:33:16.815Z,44.59
2022-08-07T08:37:59.163Z,45.28
2022-08-07T08:41:58.386Z,45.01
2022-08-07T08:45:59.291Z,45.70
2022-08-07T08:50:05.714Z,45.87
2022-08-07T08:54:21.039Z,45.66
2022-08-07T08:58:44.730Z,44.76
2022-08-07T09:02:52.312Z,45.34
2022-08-07T09:07:04.077Z,45.57
2022-08-07T09:11:05.755Z,45.50
2022-08-07T09:16:24.255Z,45.23
2022-08-07T09:19:57.582Z,45.80
2022-08-07T09:24:33.192Z,45.70
2022-08-07T09:30:04.597Z,45.40
2022-08-07T09:33:16.458Z,44.61
2022-08-07T09:37:48.194Z,44.77
2022-08-07T09:42:05.805Z,43.87
2022-08-07T09:47:50.135Z,43.84
2022-08-07T09:52:09.851Z,44.27
2022-08-07T09:56:03.787Z,43.88
2022-08-07T10:00:03.755Z,44.59
2022-08-07T10:04:33.000Z,44.35
2022-08-07T10:08:32.490Z,43.91
2022-08-07T10:12:29.383Z,43.68
2022-08-07T10:16:50.050Z,43.76
2022-08-07T10:21:05.328Z,44.40
2022-08-07T10:25:32.831Z,43.18
2022-08-07T10:30:00.889Z,42.55
2022-08-07T10:34:37.561Z,43.43
2022-08-07T10:38:48.721Z,43.38
2022-08-07T10:43:29.823Z,43.01
2022-08-07T10:47:52.598Z,43.20
2022-08-07T10:52:01.728Z,43.90
2022-08-07T10:56:33.202Z,43.77
2022-08-07T11:00:36.546Z,43.19
2022-08-07T11:05:24.143Z,43.52
2022-08-07T11:10:07.924Z,42.90
2022-08-07T11:14:46.195Z,43.02
2022-08-07T11:18:15.458Z,42.25
2022-08-07T11:22:32.480Z,42.41
2022-08-07T11:26:50.068Z,41.91
2022-08-07T11:31:02.944Z,42.76
2022-08-07T11:35:09.379Z,42.55
2022-08-07T11:39:06.993Z,43.06
2022-08-07T11:43:29.761Z,41.43
2022-08-07T11:48:29.576Z,42.38
2022-08-07T11:52:39.401Z,42.20
2022-08-07T11:56:45.344Z,44.23
2022-08-07T12:01:04.439Z,43.20
2022-08-07T12:05:41.475Z,42.16
2022-08-07T12:10:05.636Z,41.70
2022-08-07T12:14:19.003Z,41.92
2022-08-07T12:18:29.639Z,41.50
2022-08-07T12:22:56.510Z,41.61
2022-08-07T12:27:15.867Z,42.74
2022-08-07T12:31:22.485Z,41.62
2022-08-07T12:35:19.208Z,41.40
2022-08-07T12:39:44.181Z,42.03
2022-08-07T12:44:01.935Z,41.77
2022-08-07T12:48:02.464Z,41.36
2022-08-07T12:52:13.964Z,41.08
2022-08-07T12:56:27.644Z,40.46
2022-08-07T13:00:32.531Z,41.79
2022-08-07T13:05:01.567Z,40.92
2022-08-07T13:10:19.879Z,41.09
2022-08-07T13:13:57.292Z,40.84
2022-08-07T13:17:59.945Z,41.07
2022-08-07T13:22:19.340Z,41.25
2022-08-07T13:26:20.453Z,41.05
2022-08-07T13:30:19.470Z,41.32
2022-08-07T13:34:57.847Z,41.97
2022-08-07T13:39:12.976Z,41.46
2022-08-07T13:43:21.700Z,41.23
2022-08-07T13:47:25.273Z,42.16
2022-08-07T13:51:26.951Z,42.65
2022-08-07T13:55:26.219Z,42.58
2022-08-07T13:59:27.622Z,42.29
2022-08-07T14:03:30.020Z,42.22
2022-08-07T14:07:59.663Z,42.13
2022-08-07T14:12:04.934Z,41.86
2022-08-07T14:16:06.397Z,42.12
2022-08-07T14:20:42.699Z,41.67
2022-08-07T14:24:33.393Z,41.48
2022-08-07T14:28:33.286Z,42.08
2022-08-07T14:32:47.413Z,41.70
2022-08-07T14:36:41.081Z,42.20
2022-08-07T14:40:35.770Z,42.90
2022-08-07T14:44:30.487Z,43.34
2022-08-07T14:48:32.641Z,43.19
2022-08-07T14:56:41.457Z,42.94
2022-08-07T15:00:35.970Z,42.37
2022-08-07T15:04:29.145Z,42.77
2022-08-07T15:08:32.240Z,42.15
2022-08-07T15:12:37.154Z,43.47
2022-08-07T15:21:03.969Z,43.34
2022-08-07T15:25:17.077Z,43.26
2022-08-07T15:30:08.903Z,42.54
2022-08-07T15:33:33.401Z,43.09
2022-08-07T15:38:04.408Z,43.78
2022-08-07T15:42:44.051Z,42.60
2022-08-07T15:46:31.728Z,43.34
2022-08-07T15:50:37.418Z,43.37
2022-08-07T15:54:40.814Z,43.10
2022-08-07T15:58:53.738Z,43.65
2022-08-07T16:02:49.336Z,43.70
2022-08-07T16:06:51.114Z,43.50
2022-08-07T16:10:48.604Z,43.45
2022-08-07T16:14:59.138Z,43.84
2022-08-07T16:19:03.742Z,43.07
2022-08-07T16:23:54.764Z,43.27
2022-08-07T16:28:14.194Z,43.47
2022-08-07T16:32:34.893Z,43.01
2022-08-07T16:37:02.560Z,44.39
2022-08-07T16:41:41.060Z,44.36
2022-08-07T16:46:20.934Z,44.34
2022-08-07T16:50:36.321Z,43.26
2022-08-07T16:54:55.212Z,43.53
2022-08-07T16:59:24.846Z,43.53
2022-08-07T17:03:57.917Z,44.47
2022-08-07T17:07:58.386Z,43.97
2022-08-07T17:12:33.887Z,44.87
2022-08-07T17:16:25.022Z,44.27
2022-08-07T17:20:31.005Z,44.24
2022-08-07T17:24:41.991Z,45.34
2022-08-07T17:28:50.061Z,46.71
2022-08-07T17:34:08.791Z,47.02
2022-08-07T17:38:09.739Z,47.44
2022-08-07T17:42:07.590Z,47.36
2022-08-07T17:46:14.300Z,47.45
2022-08-07T17:50:30.238Z,47.92
2022-08-07T17:54:54.558Z,48.02
2022-08-07T17:58:57.419Z,48.54
2022-08-07T18:03:10.741Z,48.76
2022-08-07T18:07:28.466Z,48.53
2022-08-07T18:12:17.347Z,48.84
2022-08-07T18:15:57.097Z,48.75
2022-08-07T18:21:05.802Z,48.93
2022-08-07T18:24:34.345Z,49.45
2022-08-07T18:28:57.687Z,49.74
2022-08-07T18:33:25.677Z,50.10
2022-08-07T18:38:57.674Z,50.41
2022-08-07T18:42:18.980Z,49.95
2022-08-07T18:46:32.474Z,50.73
2022-08-07T18:50:39.156Z,50.98
2022-08-07T18:55:40.208Z,50.86
2022-08-07T18:59:58.891Z,50.66
2022-08-07T19:04:09.623Z,50.81
2022-08-07T19:08:30.148Z,51.19
2022-08-07T19:12:53.744Z,51.00
2022-08-07T19:17:05.678Z,51.52
2022-08-07T19:21:47.952Z,51.38
2022-08-07T19:26:23.560Z,51.53
2022-08-07T19:30:58.634Z,51.55
2022-08-07T19:33:58.597Z,52.07
2022-08-07T19:37:58.160Z,52.42
2022-08-07T19:42:07.825Z,52.03
2022-08-07T19:46:11.421Z,52.69
2022-08-07T19:50:43.643Z,52.30
2022-08-07T19:54:32.983Z,52.67
2022-08-07T19:58:35.536Z,53.04
2022-08-07T20:02:33.952Z,53.75
2022-08-07T20:06:31.726Z,53.45
2022-08-07T20:10:52.117Z,53.69
2022-08-07T20:14:53.982Z,54.17
2022-08-07T20:18:52.919Z,54.29
2022-08-07T20:22:47.189Z,54.38
2022-08-07T20:26:46.131Z,54.54
2022-08-07T20:30:46.807Z,54.85
2022-08-07T20:34:50.760Z,55.19
2022-08-07T20:38:56.794Z,55.46
2022-08-07T20:42:59.195Z,56.02
2022-08-07T20:47:04.343Z,55.22
2022-08-07T20:51:00.827Z,54.99
2022-08-07T20:54:56.235Z,55.20
2022-08-07T20:58:53.149Z,55.82
2022-08-07T21:03:03.025Z,55.41
2022-08-07T21:07:03.915Z,55.66
2022-08-07T21:11:02.592Z,56.03
2022-08-07T21:14:57.187Z,56.68
2022-08-07T21:18:53.146Z,56.16
2022-08-07T21:22:53.971Z,56.50
2022-08-07T21:26:59.006Z,57.15
2022-08-07T21:31:15.396Z,57.28
2022-08-07T21:36:04.310Z,58.21
2022-08-07T21:40:23.383Z,58.44
2022-08-07T21:44:28.461Z,59.11
2022-08-07T21:48:34.564Z,59.42
2022-08-07T21:52:33.501Z,59.79
2022-08-07T21:57:04.583Z,59.70
2022-08-07T22:01:03.130Z,59.46
2022-08-07T22:05:00.433Z,57.77
2022-08-07T22:09:12.871Z,58.16
2022-08-07T22:13:09.462Z,57.95
2022-08-07T22:17:05.074Z,57.10
2022-08-07T22:21:20.482Z,56.91
2022-08-07T22:25:26.954Z,56.39
2022-08-07T22:29:47.467Z,55.97
2022-08-07T22:33:57.117Z,56.04
2022-08-07T22:38:05.571Z,55.49
2022-08-07T22:42:26.168Z,54.90
2022-08-07T22:47:04.369Z,55.06
2022-08-07T22:51:20.330Z,54.40
2022-08-07T22:55:30.703Z,54.15
2022-08-07T22:59:38.765Z,54.10
2022-08-07T23:03:58.112Z,54.20
2022-08-07T23:08:38.094Z,54.37
2022-08-07T23:13:00.088Z,54.11
2022-08-07T23:17:04.815Z,54.56
2022-08-07T23:21:30.106Z,54.02
2022-08-07T23:25:35.136Z,53.46
2022-08-07T23:29:43.355Z,54.22
2022-08-07T23:34:37.932Z,53.87
2022-08-07T23:38:56.838Z,53.62
2022-08-07T23:43:26.647Z,54.31
2022-08-07T23:48:00.179Z,54.80
2022-08-07T23:53:00.393Z,54.11
2022-08-07T23:56:26.547Z,53.49
